sensor_id;sensor_type;location;lat;lon;timestamp;P1;durP1;ratioP1;P2;durP2;ratioP2
966;SDS011;56108;48.730;9.304;2022-11-20T00:00:06;9.82;;;7.07;;
966;SDS011;56108;48.730;9.304;2022-11-20T00:02:18;8.60;;;7.80;;
966;SDS011;56108;48.730;9.304;2022-11-20T00:04:26;8.32;;;7.63;;
966;SDS011;56108;48.730;9.304;2022-11-20T00:06:38;8.07;;;7.25;;
966;SDS011;56108;48.730;9.304;2022-11-20T00:08:46;7.60;;;6.90;;
966;SDS011;56108;48.730;9.304;2022-11-20T00:10:55;7.05;;;6.47;;
966;SDS011;56108;48.730;9.304;2022-11-20T00:13:04;7.00;;;6.40;;
966;SDS011;56108;48.730;9.304;2022-11-20T00:15:12;8.15;;;7.35;;
966;SDS011;56108;48.730;9.304;2022-11-20T00:17:23;9.30;;;7.28;;
966;SDS011;56108;48.730;9.304;2022-11-20T00:19:31;7.78;;;7.07;;
966;SDS011;56108;48.730;9.304;2022-11-20T00:21:40;7.80;;;7.10;;
966;SDS011;56108;48.730;9.304;2022-11-20T00:23:48;7.00;;;6.30;;
966;SDS011;56108;48.730;9.304;2022-11-20T00:26:01;8.27;;;7.45;;
966;SDS011;56108;48.730;9.304;2022-11-20T00:28:09;8.38;;;7.57;;
966;SDS011;56108;48.730;9.304;2022-11-20T00:30:18;7.35;;;6.60;;
966;SDS011;56108;48.730;9.304;2022-11-20T00:32:28;7.25;;;6.57;;
966;SDS011;56108;48.730;9.304;2022-11-20T00:34:37;8.88;;;6.82;;
966;SDS011;56108;48.730;9.304;2022-11-20T00:36:45;6.90;;;6.30;;
966;SDS011;56108;48.730;9.304;2022-11-20T00:38:53;6.57;;;5.97;;
966;SDS011;56108;48.730;9.304;2022-11-20T00:41:04;7.88;;;7.18;;
966;SDS011;56108;48.730;9.304;2022-11-20T00:43:16;7.20;;;6.55;;
966;SDS011;56108;48.730;9.304;2022-11-20T00:45:25;7.97;;;7.28;;
966;SDS011;56108;48.730;9.304;2022-11-20T00:47:36;8.10;;;7.30;;
966;SDS011;56108;48.730;9.304;2022-11-20T00:49:44;8.73;;;7.90;;
966;SDS011;56108;48.730;9.304;2022-11-20T00:51:53;8.20;;;6.50;;
966;SDS011;56108;48.730;9.304;2022-11-20T00:54:01;6.78;;;6.18;;
966;SDS011;56108;48.730;9.304;2022-11-20T00:56:09;8.23;;;7.43;;
966;SDS011;56108;48.730;9.304;2022-11-20T00:58:19;6.35;;;5.75;;
966;SDS011;56108;48.730;9.304;2022-11-20T01:00:27;6.63;;;6.13;;
966;SDS011;56108;48.730;9.304;2022-11-20T01:02:38;6.88;;;6.00;;
966;SDS011;56108;48.730;9.304;2022-11-20T01:04:46;6.78;;;5.85;;
966;SDS011;56108;48.730;9.304;2022-11-20T01:06:54;7.53;;;6.72;;
966;SDS011;56108;48.730;9.304;2022-11-20T01:09:04;6.97;;;6.25;;
966;SDS011;56108;48.730;9.304;2022-11-20T01:11:16;6.60;;;6.00;;
966;SDS011;56108;48.730;9.304;2022-11-20T01:13:25;8.65;;;7.32;;
966;SDS011;56108;48.730;9.304;2022-11-20T01:15:45;6.38;;;5.85;;
966;SDS011;56108;48.730;9.304;2022-11-20T01:17:56;5.85;;;5.35;;
966;SDS011;56108;48.730;9.304;2022-11-20T01:20:05;5.78;;;5.28;;
966;SDS011;56108;48.730;9.304;2022-11-20T01:22:14;5.90;;;5.40;;
966;SDS011;56108;48.730;9.304;2022-11-20T01:24:24;6.13;;;5.53;;
966;SDS011;56108;48.730;9.304;2022-11-20T01:26:33;5.82;;;5.32;;
966;SDS011;56108;48.730;9.304;2022-11-20T01:28:43;5.25;;;4.75;;
966;SDS011;56108;48.730;9.304;2022-11-20T01:30:51;5.47;;;5.07;;
966;SDS011;56108;48.730;9.304;2022-11-20T01:33:02;5.05;;;4.63;;
966;SDS011;56108;48.730;9.304;2022-11-20T01:35:10;6.95;;;4.88;;
966;SDS011;56108;48.730;9.304;2022-11-20T01:37:19;5.60;;;5.10;;
966;SDS011;56108;48.730;9.304;2022-11-20T01:39:28;4.65;;;4.32;;
966;SDS011;56108;48.730;9.304;2022-11-20T01:41:37;5.18;;;4.78;;
966;SDS011;56108;48.730;9.304;2022-11-20T01:43:57;5.53;;;4.78;;
966;SDS011;56108;48.730;9.304;2022-11-20T01:46:15;6.50;;;5.90;;
966;SDS011;56108;48.730;9.304;2022-11-20T01:48:27;5.20;;;4.80;;
966;SDS011;56108;48.730;9.304;2022-11-20T01:50:40;4.63;;;4.32;;
966;SDS011;56108;48.730;9.304;2022-11-20T01:52:50;5.03;;;4.63;;
966;SDS011;56108;48.730;9.304;2022-11-20T01:55:04;4.25;;;3.67;;
966;SDS011;56108;48.730;9.304;2022-11-20T01:57:14;5.65;;;5.22;;
966;SDS011;56108;48.730;9.304;2022-11-20T01:59:25;4.35;;;4.05;;
966;SDS011;56108;48.730;9.304;2022-11-20T02:01:36;5.13;;;4.70;;
966;SDS011;56108;48.730;9.304;2022-11-20T02:03:46;5.05;;;4.65;;
966;SDS011;56108;48.730;9.304;2022-11-20T02:05:57;4.18;;;3.63;;
966;SDS011;56108;48.730;9.304;2022-11-20T02:08:12;4.93;;;4.55;;
966;SDS011;56108;48.730;9.304;2022-11-20T02:10:21;4.70;;;4.30;;
966;SDS011;56108;48.730;9.304;2022-11-20T02:12:30;5.22;;;4.80;;
966;SDS011;56108;48.730;9.304;2022-11-20T02:14:59;4.55;;;4.25;;
966;SDS011;56108;48.730;9.304;2022-11-20T02:17:07;5.70;;;4.82;;
966;SDS011;56108;48.730;9.304;2022-11-20T02:19:21;5.10;;;4.70;;
966;SDS011;56108;48.730;9.304;2022-11-20T02:21:33;6.68;;;6.07;;
966;SDS011;56108;48.730;9.304;2022-11-20T02:26:16;7.38;;;6.68;;
966;SDS011;56108;48.730;9.304;2022-11-20T02:28:28;8.43;;;7.72;;
966;SDS011;56108;48.730;9.304;2022-11-20T02:30:36;8.77;;;7.88;;
966;SDS011;56108;48.730;9.304;2022-11-20T02:32:45;10.10;;;8.15;;
966;SDS011;56108;48.730;9.304;2022-11-20T02:34:53;7.90;;;6.90;;
966;SDS011;56108;48.730;9.304;2022-11-20T02:37:02;6.40;;;5.90;;
966;SDS011;56108;48.730;9.304;2022-11-20T02:39:13;7.55;;;6.65;;
966;SDS011;56108;48.730;9.304;2022-11-20T02:41:30;6.03;;;5.40;;
966;SDS011;56108;48.730;9.304;2022-11-20T02:43:45;6.40;;;5.90;;
966;SDS011;56108;48.730;9.304;2022-11-20T02:45:53;6.32;;;5.72;;
966;SDS011;56108;48.730;9.304;2022-11-20T02:48:00;10.45;;;7.13;;
966;SDS011;56108;48.730;9.304;2022-11-20T02:50:08;6.28;;;5.68;;
966;SDS011;56108;48.730;9.304;2022-11-20T02:52:16;7.55;;;6.85;;
966;SDS011;56108;48.730;9.304;2022-11-20T02:54:27;7.25;;;6.65;;
966;SDS011;56108;48.730;9.304;2022-11-20T02:56:37;7.07;;;6.38;;
966;SDS011;56108;48.730;9.304;2022-11-20T02:58:45;7.05;;;6.45;;
966;SDS011;56108;48.730;9.304;2022-11-20T03:00:53;6.85;;;6.20;;
966;SDS011;56108;48.730;9.304;2022-11-20T03:03:01;6.80;;;6.10;;
966;SDS011;56108;48.730;9.304;2022-11-20T03:05:09;7.30;;;6.60;;
966;SDS011;56108;48.730;9.304;2022-11-20T03:07:17;7.20;;;6.60;;
966;SDS011;56108;48.730;9.304;2022-11-20T03:09:28;7.10;;;6.50;;
966;SDS011;56108;48.730;9.304;2022-11-20T03:11:35;6.90;;;6.30;;
966;SDS011;56108;48.730;9.304;2022-11-20T03:13:43;7.63;;;6.72;;
966;SDS011;56108;48.730;9.304;2022-11-20T03:15:51;6.32;;;5.82;;
966;SDS011;56108;48.730;9.304;2022-11-20T03:17:59;6.40;;;5.90;;
966;SDS011;56108;48.730;9.304;2022-11-20T03:20:08;7.38;;;6.68;;
966;SDS011;56108;48.730;9.304;2022-11-20T03:22:16;7.32;;;6.40;;
966;SDS011;56108;48.730;9.304;2022-11-20T03:24:24;7.22;;;6.63;;
966;SDS011;56108;48.730;9.304;2022-11-20T03:26:36;7.18;;;6.47;;
966;SDS011;56108;48.730;9.304;2022-11-20T03:28:46;7.32;;;6.70;;
966;SDS011;56108;48.730;9.304;2022-11-20T03:30:55;9.07;;;8.07;;
966;SDS011;56108;48.730;9.304;2022-11-20T03:33:03;8.57;;;7.88;;
966;SDS011;56108;48.730;9.304;2022-11-20T03:35:11;9.18;;;8.25;;
966;SDS011;56108;48.730;9.304;2022-11-20T03:37:19;8.63;;;7.82;;
966;SDS011;56108;48.730;9.304;2022-11-20T03:39:27;8.32;;;7.50;;
966;SDS011;56108;48.730;9.304;2022-11-20T03:41:38;7.95;;;7.25;;
966;SDS011;56108;48.730;9.304;2022-11-20T03:43:48;7.15;;;6.55;;
966;SDS011;56108;48.730;9.304;2022-11-20T03:45:56;6.93;;;6.22;;
966;SDS011;56108;48.730;9.304;2022-11-20T03:48:06;8.43;;;6.00;;
966;SDS011;56108;48.730;9.304;2022-11-20T03:50:14;6.38;;;5.78;;
966;SDS011;56108;48.730;9.304;2022-11-20T03:52:22;6.22;;;5.63;;
966;SDS011;56108;48.730;9.304;2022-11-20T03:54:30;6.43;;;5.88;;
966;SDS011;56108;48.730;9.304;2022-11-20T03:56:41;10.30;;;6.20;;
966;SDS011;56108;48.730;9.304;2022-11-20T03:58:49;6.10;;;5.55;;
966;SDS011;56108;48.730;9.304;2022-11-20T04:00:57;6.15;;;5.65;;
966;SDS011;56108;48.730;9.304;2022-11-20T04:03:11;5.18;;;4.68;;
966;SDS011;56108;48.730;9.304;2022-11-20T04:05:19;7.10;;;6.50;;
966;SDS011;56108;48.730;9.304;2022-11-20T04:07:27;6.25;;;5.65;;
966;SDS011;56108;48.730;9.304;2022-11-20T04:09:35;6.00;;;5.45;;
966;SDS011;56108;48.730;9.304;2022-11-20T04:11:46;5.95;;;5.35;;
966;SDS011;56108;48.730;9.304;2022-11-20T04:13:54;5.90;;;5.40;;
966;SDS011;56108;48.730;9.304;2022-11-20T04:16:04;5.70;;;5.10;;
966;SDS011;56108;48.730;9.304;2022-11-20T04:18:12;6.07;;;5.47;;
966;SDS011;56108;48.730;9.304;2022-11-20T04:20:22;5.57;;;5.07;;
966;SDS011;56108;48.730;9.304;2022-11-20T04:22:30;6.55;;;5.93;;
966;SDS011;56108;48.730;9.304;2022-11-20T04:24:39;5.20;;;4.72;;
966;SDS011;56108;48.730;9.304;2022-11-20T04:26:50;5.43;;;5.03;;
966;SDS011;56108;48.730;9.304;2022-11-20T04:29:02;6.80;;;5.47;;
966;SDS011;56108;48.730;9.304;2022-11-20T04:31:11;8.13;;;5.85;;
966;SDS011;56108;48.730;9.304;2022-11-20T04:33:21;6.28;;;5.78;;
966;SDS011;56108;48.730;9.304;2022-11-20T04:35:33;5.78;;;5.38;;
966;SDS011;56108;48.730;9.304;2022-11-20T04:37:41;6.88;;;5.57;;
966;SDS011;56108;48.730;9.304;2022-11-20T04:39:49;5.57;;;5.03;;
966;SDS011;56108;48.730;9.304;2022-11-20T04:42:00;5.20;;;4.75;;
966;SDS011;56108;48.730;9.304;2022-11-20T04:44:20;5.05;;;4.65;;
966;SDS011;56108;48.730;9.304;2022-11-20T04:46:28;5.53;;;5.00;;
966;SDS011;56108;48.730;9.304;2022-11-20T04:48:37;5.30;;;4.85;;
966;SDS011;56108;48.730;9.304;2022-11-20T04:50:45;6.00;;;5.45;;
966;SDS011;56108;48.730;9.304;2022-11-20T04:52:53;5.68;;;5.22;;
966;SDS011;56108;48.730;9.304;2022-11-20T04:55:01;5.95;;;4.95;;
966;SDS011;56108;48.730;9.304;2022-11-20T04:57:12;6.35;;;5.72;;
966;SDS011;56108;48.730;9.304;2022-11-20T04:59:24;5.15;;;4.65;;
966;SDS011;56108;48.730;9.304;2022-11-20T05:01:32;5.20;;;4.80;;
966;SDS011;56108;48.730;9.304;2022-11-20T05:03:40;5.40;;;5.00;;
966;SDS011;56108;48.730;9.304;2022-11-20T05:05:49;6.65;;;4.93;;
966;SDS011;56108;48.730;9.304;2022-11-20T05:07:57;5.47;;;4.97;;
966;SDS011;56108;48.730;9.304;2022-11-20T05:10:06;5.85;;;5.25;;
966;SDS011;56108;48.730;9.304;2022-11-20T05:12:18;5.53;;;4.78;;
966;SDS011;56108;48.730;9.304;2022-11-20T05:14:25;5.10;;;4.70;;
966;SDS011;56108;48.730;9.304;2022-11-20T05:16:34;7.00;;;5.90;;
966;SDS011;56108;48.730;9.304;2022-11-20T05:18:42;6.20;;;5.00;;
966;SDS011;56108;48.730;9.304;2022-11-20T05:20:54;4.72;;;4.32;;
966;SDS011;56108;48.730;9.304;2022-11-20T05:23:03;5.40;;;5.00;;
966;SDS011;56108;48.730;9.304;2022-11-20T05:25:11;5.45;;;4.57;;
966;SDS011;56108;48.730;9.304;2022-11-20T05:27:22;5.40;;;5.00;;
966;SDS011;56108;48.730;9.304;2022-11-20T05:29:32;5.43;;;4.97;;
966;SDS011;56108;48.730;9.304;2022-11-20T05:31:41;5.10;;;4.70;;
966;SDS011;56108;48.730;9.304;2022-11-20T05:33:49;5.38;;;4.65;;
966;SDS011;56108;48.730;9.304;2022-11-20T05:35:58;4.60;;;4.30;;
966;SDS011;56108;48.730;9.304;2022-11-20T05:38:07;5.38;;;4.57;;
966;SDS011;56108;48.730;9.304;2022-11-20T05:40:15;5.45;;;4.95;;
966;SDS011;56108;48.730;9.304;2022-11-20T05:42:26;4.47;;;4.18;;
966;SDS011;56108;48.730;9.304;2022-11-20T05:44:38;4.95;;;4.30;;
966;SDS011;56108;48.730;9.304;2022-11-20T05:46:49;4.80;;;4.40;;
966;SDS011;56108;48.730;9.304;2022-11-20T05:49:02;4.50;;;4.10;;
966;SDS011;56108;48.730;9.304;2022-11-20T05:51:10;4.43;;;4.03;;
966;SDS011;56108;48.730;9.304;2022-11-20T05:53:20;5.78;;;4.95;;
966;SDS011;56108;48.730;9.304;2022-11-20T05:55:31;4.20;;;3.90;;
966;SDS011;56108;48.730;9.304;2022-11-20T05:57:42;4.50;;;4.10;;
966;SDS011;56108;48.730;9.304;2022-11-20T05:59:49;5.25;;;4.57;;
966;SDS011;56108;48.730;9.304;2022-11-20T06:01:58;4.85;;;4.45;;
966;SDS011;56108;48.730;9.304;2022-11-20T06:04:07;5.20;;;4.70;;
966;SDS011;56108;48.730;9.304;2022-11-20T06:06:16;5.00;;;4.60;;
966;SDS011;56108;48.730;9.304;2022-11-20T06:08:24;4.47;;;4.07;;
966;SDS011;56108;48.730;9.304;2022-11-20T06:10:32;4.43;;;4.13;;
966;SDS011;56108;48.730;9.304;2022-11-20T06:12:42;4.82;;;4.43;;
966;SDS011;56108;48.730;9.304;2022-11-20T06:14:53;4.00;;;3.70;;
966;SDS011;56108;48.730;9.304;2022-11-20T06:17:03;4.47;;;4.10;;
966;SDS011;56108;48.730;9.304;2022-11-20T06:19:13;4.28;;;3.88;;
966;SDS011;56108;48.730;9.304;2022-11-20T06:21:21;4.47;;;4.10;;
966;SDS011;56108;48.730;9.304;2022-11-20T06:23:30;5.75;;;3.97;;
966;SDS011;56108;48.730;9.304;2022-11-20T06:25:39;4.13;;;3.85;;
966;SDS011;56108;48.730;9.304;2022-11-20T06:27:50;4.72;;;4.32;;
966;SDS011;56108;48.730;9.304;2022-11-20T06:30:02;4.38;;;4.03;;
966;SDS011;56108;48.730;9.304;2022-11-20T06:32:11;3.70;;;3.40;;
966;SDS011;56108;48.730;9.304;2022-11-20T06:34:19;5.13;;;4.72;;
966;SDS011;56108;48.730;9.304;2022-11-20T06:36:27;5.40;;;4.90;;
966;SDS011;56108;48.730;9.304;2022-11-20T06:38:35;4.72;;;4.43;;
966;SDS011;56108;48.730;9.304;2022-11-20T06:40:43;4.30;;;3.90;;
966;SDS011;56108;48.730;9.304;2022-11-20T06:42:55;4.55;;;4.07;;
966;SDS011;56108;48.730;9.304;2022-11-20T06:45:04;4.82;;;4.53;;
966;SDS011;56108;48.730;9.304;2022-11-20T06:47:13;5.75;;;4.43;;
966;SDS011;56108;48.730;9.304;2022-11-20T06:49:21;4.30;;;3.90;;
966;SDS011;56108;48.730;9.304;2022-11-20T06:51:30;4.45;;;4.15;;
966;SDS011;56108;48.730;9.304;2022-11-20T06:53:38;4.45;;;4.15;;
966;SDS011;56108;48.730;9.304;2022-11-20T06:55:47;4.28;;;3.42;;
966;SDS011;56108;48.730;9.304;2022-11-20T06:57:58;4.20;;;3.90;;
966;SDS011;56108;48.730;9.304;2022-11-20T07:00:06;4.75;;;4.45;;
966;SDS011;56108;48.730;9.304;2022-11-20T07:02:15;4.78;;;4.35;;
966;SDS011;56108;48.730;9.304;2022-11-20T07:04:23;4.55;;;4.15;;
966;SDS011;56108;48.730;9.304;2022-11-20T07:06:31;5.05;;;4.55;;
966;SDS011;56108;48.730;9.304;2022-11-20T07:08:39;3.97;;;3.67;;
966;SDS011;56108;48.730;9.304;2022-11-20T07:10:47;4.90;;;4.50;;
966;SDS011;56108;48.730;9.304;2022-11-20T07:12:58;4.25;;;3.85;;
966;SDS011;56108;48.730;9.304;2022-11-20T07:15:07;4.55;;;4.15;;
966;SDS011;56108;48.730;9.304;2022-11-20T07:17:15;4.30;;;4.00;;
966;SDS011;56108;48.730;9.304;2022-11-20T07:19:24;4.07;;;3.78;;
966;SDS011;56108;48.730;9.304;2022-11-20T07:21:32;4.70;;;4.30;;
966;SDS011;56108;48.730;9.304;2022-11-20T07:23:40;3.83;;;3.53;;
966;SDS011;56108;48.730;9.304;2022-11-20T07:25:48;4.28;;;3.88;;
966;SDS011;56108;48.730;9.304;2022-11-20T07:27:59;3.30;;;3.10;;
966;SDS011;56108;48.730;9.304;2022-11-20T07:30:11;4.38;;;4.07;;
966;SDS011;56108;48.730;9.304;2022-11-20T07:32:20;3.95;;;3.60;;
966;SDS011;56108;48.730;9.304;2022-11-20T07:34:28;4.20;;;3.90;;
966;SDS011;56108;48.730;9.304;2022-11-20T07:36:36;4.10;;;3.45;;
966;SDS011;56108;48.730;9.304;2022-11-20T07:38:44;4.07;;;3.78;;
966;SDS011;56108;48.730;9.304;2022-11-20T07:40:53;3.70;;;3.40;;
966;SDS011;56108;48.730;9.304;2022-11-20T07:43:05;4.05;;;3.65;;
966;SDS011;56108;48.730;9.304;2022-11-20T07:45:12;4.13;;;3.83;;
966;SDS011;56108;48.730;9.304;2022-11-20T07:47:21;3.35;;;3.05;;
966;SDS011;56108;48.730;9.304;2022-11-20T07:49:29;4.63;;;3.95;;
966;SDS011;56108;48.730;9.304;2022-11-20T07:51:37;3.60;;;3.40;;
966;SDS011;56108;48.730;9.304;2022-11-20T07:53:45;4.40;;;3.50;;
966;SDS011;56108;48.730;9.304;2022-11-20T07:55:54;3.47;;;3.17;;
966;SDS011;56108;48.730;9.304;2022-11-20T07:58:02;3.40;;;3.20;;
966;SDS011;56108;48.730;9.304;2022-11-20T08:00:13;3.45;;;3.17;;
966;SDS011;56108;48.730;9.304;2022-11-20T08:02:22;3.97;;;3.55;;
966;SDS011;56108;48.730;9.304;2022-11-20T08:04:30;2.72;;;2.63;;
966;SDS011;56108;48.730;9.304;2022-11-20T08:06:38;4.38;;;3.97;;
966;SDS011;56108;48.730;9.304;2022-11-20T08:08:47;3.30;;;3.10;;
966;SDS011;56108;48.730;9.304;2022-11-20T08:10:56;3.20;;;3.00;;
966;SDS011;56108;48.730;9.304;2022-11-20T08:13:26;3.65;;;3.35;;
966;SDS011;56108;48.730;9.304;2022-11-20T08:15:48;3.55;;;3.25;;
966;SDS011;56108;48.730;9.304;2022-11-20T08:18:01;3.38;;;3.17;;
966;SDS011;56108;48.730;9.304;2022-11-20T08:20:30;3.75;;;3.30;;
966;SDS011;56108;48.730;9.304;2022-11-20T08:22:39;3.60;;;3.38;;
966;SDS011;56108;48.730;9.304;2022-11-20T08:24:47;3.05;;;2.85;;
966;SDS011;56108;48.730;9.304;2022-11-20T08:26:56;3.50;;;3.30;;
966;SDS011;56108;48.730;9.304;2022-11-20T08:29:07;3.40;;;3.20;;
966;SDS011;56108;48.730;9.304;2022-11-20T08:31:15;3.70;;;3.40;;
966;SDS011;56108;48.730;9.304;2022-11-20T08:33:23;5.07;;;3.38;;
966;SDS011;56108;48.730;9.304;2022-11-20T08:35:35;5.25;;;4.15;;
966;SDS011;56108;48.730;9.304;2022-11-20T08:37:45;4.03;;;3.63;;
966;SDS011;56108;48.730;9.304;2022-11-20T08:39:56;3.15;;;2.95;;
966;SDS011;56108;48.730;9.304;2022-11-20T08:42:06;3.40;;;3.17;;
966;SDS011;56108;48.730;9.304;2022-11-20T08:44:17;4.30;;;4.00;;
966;SDS011;56108;48.730;9.304;2022-11-20T08:46:26;3.92;;;3.63;;
966;SDS011;56108;48.730;9.304;2022-11-20T08:48:37;3.67;;;3.38;;
966;SDS011;56108;48.730;9.304;2022-11-20T08:50:45;4.53;;;3.50;;
966;SDS011;56108;48.730;9.304;2022-11-20T08:52:53;6.20;;;3.60;;
966;SDS011;56108;48.730;9.304;2022-11-20T08:55:01;3.03;;;2.83;;
966;SDS011;56108;48.730;9.304;2022-11-20T08:57:10;3.88;;;3.58;;
966;SDS011;56108;48.730;9.304;2022-11-20T08:59:20;3.22;;;3.03;;
966;SDS011;56108;48.730;9.304;2022-11-20T09:01:48;3.90;;;3.50;;
966;SDS011;56108;48.730;9.304;2022-11-20T09:03:56;4.25;;;3.95;;
966;SDS011;56108;48.730;9.304;2022-11-20T09:06:06;5.57;;;3.88;;
966;SDS011;56108;48.730;9.304;2022-11-20T09:08:14;3.38;;;3.17;;
966;SDS011;56108;48.730;9.304;2022-11-20T09:10:23;4.05;;;3.65;;
966;SDS011;56108;48.730;9.304;2022-11-20T09:12:34;3.50;;;3.25;;
966;SDS011;56108;48.730;9.304;2022-11-20T09:14:45;4.35;;;4.05;;
966;SDS011;56108;48.730;9.304;2022-11-20T09:16:58;4.53;;;4.15;;
966;SDS011;56108;48.730;9.304;2022-11-20T09:19:06;3.80;;;3.50;;
966;SDS011;56108;48.730;9.304;2022-11-20T09:21:34;3.80;;;3.50;;
966;SDS011;56108;48.730;9.304;2022-11-20T09:23:43;2.80;;;2.60;;
966;SDS011;56108;48.730;9.304;2022-11-20T09:25:55;3.42;;;3.13;;
966;SDS011;56108;48.730;9.304;2022-11-20T09:28:04;3.20;;;3.00;;
966;SDS011;56108;48.730;9.304;2022-11-20T09:30:15;2.88;;;2.67;;
966;SDS011;56108;48.730;9.304;2022-11-20T09:32:23;2.25;;;2.15;;
966;SDS011;56108;48.730;9.304;2022-11-20T09:34:31;2.22;;;2.13;;
966;SDS011;56108;48.730;9.304;2022-11-20T09:36:39;3.40;;;3.10;;
966;SDS011;56108;48.730;9.304;2022-11-20T09:38:47;2.35;;;2.25;;
966;SDS011;56108;48.730;9.304;2022-11-20T09:40:57;2.22;;;2.13;;
966;SDS011;56108;48.730;9.304;2022-11-20T09:43:11;1.80;;;1.70;;
966;SDS011;56108;48.730;9.304;2022-11-20T09:45:35;2.22;;;2.13;;
966;SDS011;56108;48.730;9.304;2022-11-20T09:47:54;2.00;;;1.90;;
966;SDS011;56108;48.730;9.304;2022-11-20T09:50:19;2.10;;;2.00;;
966;SDS011;56108;48.730;9.304;2022-11-20T09:52:38;1.98;;;1.88;;
966;SDS011;56108;48.730;9.304;2022-11-20T09:54:55;2.33;;;2.22;;
966;SDS011;56108;48.730;9.304;2022-11-20T09:57:05;2.30;;;2.10;;
966;SDS011;56108;48.730;9.304;2022-11-20T09:59:23;1.20;;;1.20;;
966;SDS011;56108;48.730;9.304;2022-11-20T10:01:41;2.28;;;2.10;;
966;SDS011;56108;48.730;9.304;2022-11-20T10:03:51;1.55;;;1.45;;
966;SDS011;56108;48.730;9.304;2022-11-20T10:06:03;1.70;;;1.60;;
966;SDS011;56108;48.730;9.304;2022-11-20T10:08:19;1.75;;;1.55;;
966;SDS011;56108;48.730;9.304;2022-11-20T10:10:34;1.65;;;1.55;;
966;SDS011;56108;48.730;9.304;2022-11-20T10:12:53;1.40;;;1.40;;
966;SDS011;56108;48.730;9.304;2022-11-20T10:15:19;1.60;;;1.50;;
966;SDS011;56108;48.730;9.304;2022-11-20T10:17:46;1.80;;;1.70;;
966;SDS011;56108;48.730;9.304;2022-11-20T10:20:14;1.58;;;1.48;;
966;SDS011;56108;48.730;9.304;2022-11-20T10:22:30;2.22;;;1.60;;
966;SDS011;56108;48.730;9.304;2022-11-20T10:24:54;1.55;;;1.45;;
966;SDS011;56108;48.730;9.304;2022-11-20T10:27:06;3.03;;;1.10;;
966;SDS011;56108;48.730;9.304;2022-11-20T10:29:26;1.85;;;1.75;;
966;SDS011;56108;48.730;9.304;2022-11-20T10:31:40;1.52;;;1.42;;
966;SDS011;56108;48.730;9.304;2022-11-20T10:33:54;3.10;;;1.65;;
966;SDS011;56108;48.730;9.304;2022-11-20T10:36:16;1.45;;;1.33;;
966;SDS011;56108;48.730;9.304;2022-11-20T10:38:30;1.20;;;1.20;;
966;SDS011;56108;48.730;9.304;2022-11-20T10:40:45;1.60;;;1.50;;
966;SDS011;56108;48.730;9.304;2022-11-20T10:42:59;1.35;;;1.35;;
966;SDS011;56108;48.730;9.304;2022-11-20T10:45:11;1.33;;;1.30;;
966;SDS011;56108;48.730;9.304;2022-11-20T10:47:40;1.30;;;1.20;;
966;SDS011;56108;48.730;9.304;2022-11-20T10:49:51;1.23;;;1.00;;
966;SDS011;56108;48.730;9.304;2022-11-20T10:52:04;1.15;;;1.00;;
966;SDS011;56108;48.730;9.304;2022-11-20T10:54:19;0.82;;;0.82;;
966;SDS011;56108;48.730;9.304;2022-11-20T10:56:35;1.10;;;1.10;;
966;SDS011;56108;48.730;9.304;2022-11-20T10:58:59;1.48;;;1.38;;
966;SDS011;56108;48.730;9.304;2022-11-20T11:01:27;2.90;;;2.65;;
966;SDS011;56108;48.730;9.304;2022-11-20T11:03:35;2.75;;;2.55;;
966;SDS011;56108;48.730;9.304;2022-11-20T11:05:48;4.32;;;3.20;;
966;SDS011;56108;48.730;9.304;2022-11-20T11:07:58;8.05;;;6.25;;
966;SDS011;56108;48.730;9.304;2022-11-20T11:10:12;6.32;;;4.82;;
966;SDS011;56108;48.730;9.304;2022-11-20T11:12:23;1.98;;;1.88;;
966;SDS011;56108;48.730;9.304;2022-11-20T11:14:41;1.50;;;1.40;;
966;SDS011;56108;48.730;9.304;2022-11-20T11:16:50;1.98;;;1.88;;
966;SDS011;56108;48.730;9.304;2022-11-20T11:19:04;1.50;;;1.30;;
966;SDS011;56108;48.730;9.304;2022-11-20T11:21:19;1.80;;;1.70;;
966;SDS011;56108;48.730;9.304;2022-11-20T11:23:32;1.40;;;1.30;;
966;SDS011;56108;48.730;9.304;2022-11-20T11:25:42;1.50;;;1.40;;
966;SDS011;56108;48.730;9.304;2022-11-20T11:28:19;1.40;;;1.30;;
966;SDS011;56108;48.730;9.304;2022-11-20T11:30:40;2.10;;;1.20;;
966;SDS011;56108;48.730;9.304;2022-11-20T11:33:02;1.70;;;1.60;;
966;SDS011;56108;48.730;9.304;2022-11-20T11:35:19;6.28;;;5.57;;
966;SDS011;56108;48.730;9.304;2022-11-20T11:37:36;16.75;;;13.13;;
966;SDS011;56108;48.730;9.304;2022-11-20T11:39:46;9.48;;;6.45;;
966;SDS011;56108;48.730;9.304;2022-11-20T11:42:16;11.18;;;8.75;;
966;SDS011;56108;48.730;9.304;2022-11-20T11:44:27;3.78;;;3.47;;
966;SDS011;56108;48.730;9.304;2022-11-20T11:46:51;2.97;;;2.78;;
966;SDS011;56108;48.730;9.304;2022-11-20T11:49:11;2.88;;;2.67;;
966;SDS011;56108;48.730;9.304;2022-11-20T11:51:26;3.53;;;3.33;;
966;SDS011;56108;48.730;9.304;2022-11-20T11:53:43;3.15;;;2.95;;
966;SDS011;56108;48.730;9.304;2022-11-20T11:55:54;2.80;;;2.70;;
966;SDS011;56108;48.730;9.304;2022-11-20T11:58:11;2.72;;;2.50;;
966;SDS011;56108;48.730;9.304;2022-11-20T12:00:25;3.35;;;3.05;;
966;SDS011;56108;48.730;9.304;2022-11-20T12:02:35;2.08;;;1.98;;
966;SDS011;56108;48.730;9.304;2022-11-20T12:04:49;2.00;;;1.90;;
966;SDS011;56108;48.730;9.304;2022-11-20T12:07:04;1.83;;;1.73;;
966;SDS011;56108;48.730;9.304;2022-11-20T12:09:43;2.25;;;2.10;;
966;SDS011;56108;48.730;9.304;2022-11-20T12:11:59;2.00;;;1.90;;
966;SDS011;56108;48.730;9.304;2022-11-20T12:14:17;2.92;;;2.58;;
966;SDS011;56108;48.730;9.304;2022-11-20T12:16:35;2.20;;;2.10;;
966;SDS011;56108;48.730;9.304;2022-11-20T12:18:51;2.80;;;2.30;;
966;SDS011;56108;48.730;9.304;2022-11-20T12:21:03;4.53;;;3.72;;
966;SDS011;56108;48.730;9.304;2022-11-20T12:23:21;4.60;;;3.45;;
966;SDS011;56108;48.730;9.304;2022-11-20T12:25:38;5.38;;;3.20;;
966;SDS011;56108;48.730;9.304;2022-11-20T12:27:54;3.33;;;3.03;;
966;SDS011;56108;48.730;9.304;2022-11-20T12:30:14;2.53;;;2.33;;
966;SDS011;56108;48.730;9.304;2022-11-20T12:32:39;2.97;;;2.65;;
966;SDS011;56108;48.730;9.304;2022-11-20T12:35:04;2.38;;;2.20;;
966;SDS011;56108;48.730;9.304;2022-11-20T12:37:30;7.40;;;5.90;;
966;SDS011;56108;48.730;9.304;2022-11-20T12:39:46;25.90;;;17.60;;
966;SDS011;56108;48.730;9.304;2022-11-20T12:42:05;7.35;;;5.03;;
966;SDS011;56108;48.730;9.304;2022-11-20T12:44:44;22.63;;;17.17;;
966;SDS011;56108;48.730;9.304;2022-11-20T12:47:20;3.28;;;2.30;;
966;SDS011;56108;48.730;9.304;2022-11-20T12:49:38;2.17;;;2.00;;
966;SDS011;56108;48.730;9.304;2022-11-20T12:52:00;3.80;;;3.50;;
966;SDS011;56108;48.730;9.304;2022-11-20T12:57:06;3.53;;;3.22;;
966;SDS011;56108;48.730;9.304;2022-11-20T12:59:26;2.80;;;2.47;;
966;SDS011;56108;48.730;9.304;2022-11-20T13:01:45;2.83;;;2.53;;
966;SDS011;56108;48.730;9.304;2022-11-20T13:03:57;3.00;;;2.80;;
966;SDS011;56108;48.730;9.304;2022-11-20T13:06:15;1.73;;;1.60;;
966;SDS011;56108;48.730;9.304;2022-11-20T13:08:27;1.40;;;1.40;;
966;SDS011;56108;48.730;9.304;2022-11-20T13:10:38;2.85;;;2.55;;
966;SDS011;56108;48.730;9.304;2022-11-20T13:12:54;2.00;;;1.90;;
966;SDS011;56108;48.730;9.304;2022-11-20T13:15:08;1.90;;;1.80;;
966;SDS011;56108;48.730;9.304;2022-11-20T13:17:32;3.58;;;1.77;;
966;SDS011;56108;48.730;9.304;2022-11-20T13:19:46;2.70;;;2.50;;
966;SDS011;56108;48.730;9.304;2022-11-20T13:21:58;2.92;;;2.70;;
966;SDS011;56108;48.730;9.304;2022-11-20T13:24:07;2.80;;;2.60;;
966;SDS011;56108;48.730;9.304;2022-11-20T13:26:30;2.95;;;2.75;;
966;SDS011;56108;48.730;9.304;2022-11-20T13:28:42;2.38;;;2.17;;
966;SDS011;56108;48.730;9.304;2022-11-20T13:30:52;1.98;;;1.88;;
966;SDS011;56108;48.730;9.304;2022-11-20T13:33:04;1.25;;;1.25;;
966;SDS011;56108;48.730;9.304;2022-11-20T13:35:23;1.13;;;1.02;;
966;SDS011;56108;48.730;9.304;2022-11-20T13:37:36;1.85;;;1.75;;
966;SDS011;56108;48.730;9.304;2022-11-20T13:39:45;1.20;;;1.20;;
966;SDS011;56108;48.730;9.304;2022-11-20T13:41:54;1.33;;;1.10;;
966;SDS011;56108;48.730;9.304;2022-11-20T13:44:14;1.83;;;1.17;;